createdAt,value
2023-02-07T00:01:33.288Z,80.61
2023-02-07T00:04:03.229Z,81.03
2023-02-07T00:06:32.498Z,80.58
2023-02-07T00:09:04.825Z,80.34
2023-02-07T00:11:32.168Z,79.97
2023-02-07T00:13:59.888Z,80.38
2023-02-07T00:16:28.536Z,80.32
2023-02-07T00:18:59.045Z,80.11
2023-02-07T00:21:28.251Z,80.08
2023-02-07T00:23:56.110Z,80.00
2023-02-07T00:26:26.422Z,79.84
2023-02-07T00:28:55.178Z,79.91
2023-02-07T00:31:26.650Z,79.71
2023-02-07T00:33:56.369Z,79.85
2023-02-07T00:36:26.339Z,79.44
2023-02-07T00:38:56.531Z,79.86
2023-02-07T00:41:25.888Z,79.61
2023-02-07T00:43:54.379Z,79.97
2023-02-07T00:46:24.372Z,79.79
2023-02-07T00:48:54.689Z,80.33
2023-02-07T00:51:22.160Z,79.59
2023-02-07T00:53:51.376Z,80.37
2023-02-07T00:56:21.728Z,80.49
2023-02-07T00:58:51.072Z,80.52
2023-02-07T01:01:18.959Z,80.07
2023-02-07T01:03:46.635Z,80.19
2023-02-07T01:06:14.375Z,80.10
2023-02-07T01:08:41.717Z,80.41
2023-02-07T01:11:11.441Z,81.44
2023-02-07T01:13:39.427Z,81.37
2023-02-07T01:16:08.287Z,81.68
2023-02-07T01:18:35.564Z,82.95
2023-02-07T01:21:13.109Z,83.38
2023-02-07T01:23:40.408Z,82.70
2023-02-07T01:26:08.432Z,83.28
2023-02-07T01:28:35.808Z,84.40
2023-02-07T01:31:09.110Z,84.68
2023-02-07T01:33:38.376Z,83.40
2023-02-07T01:36:07.263Z,83.51
2023-02-07T01:38:34.539Z,83.30
2023-02-07T01:41:01.927Z,83.70
2023-02-07T01:43:29.403Z,83.82
2023-02-07T01:45:56.710Z,83.72
2023-02-07T01:48:31.937Z,84.60
2023-02-07T01:51:04.652Z,84.55
2023-02-07T01:53:35.085Z,84.76
2023-02-07T01:56:05.266Z,84.67
2023-02-07T01:58:33.611Z,85.26
2023-02-07T02:01:04.200Z,85.51
2023-02-07T02:03:34.963Z,86.04
2023-02-07T02:06:02.830Z,86.36
2023-02-07T02:08:30.147Z,86.53
2023-02-07T02:11:10.216Z,86.55
2023-02-07T02:13:45.007Z,86.83
2023-02-07T02:16:20.492Z,86.84
2023-02-07T02:19:03.498Z,86.93
2023-02-07T02:21:58.694Z,87.17
2023-02-07T02:25:07.136Z,86.84
2023-02-07T02:28:02.064Z,87.02
2023-02-07T02:30:41.400Z,87.91
2023-02-07T02:33:33.810Z,87.93
2023-02-07T02:36:16.491Z,88.12
2023-02-07T02:38:51.590Z,88.20
2023-02-07T02:41:27.270Z,88.29
2023-02-07T02:44:01.734Z,88.37
2023-02-07T02:46:34.384Z,89.45
2023-02-07T02:49:08.124Z,89.52
2023-02-07T02:51:38.194Z,89.11
2023-02-07T02:54:27.805Z,89.25
2023-02-07T02:57:31.186Z,89.22
2023-02-07T03:00:27.011Z,88.89
2023-02-07T03:03:11.255Z,88.71
2023-02-07T03:05:52.837Z,88.98
2023-02-07T03:08:30.869Z,88.68
2023-02-07T03:11:07.625Z,88.73
2023-02-07T03:13:49.351Z,88.11
2023-02-07T03:16:22.208Z,87.78
2023-02-07T03:18:57.066Z,88.36
2023-02-07T03:21:30.330Z,87.58
2023-02-07T03:24:01.360Z,87.19
2023-02-07T03:26:30.718Z,87.08
2023-02-07T03:28:59.706Z,87.46
2023-02-07T03:31:29.154Z,87.58
2023-02-07T03:34:03.082Z,87.33
2023-02-07T03:36:38.634Z,88.17
2023-02-07T03:39:05.934Z,88.07
2023-02-07T03:41:40.203Z,87.36
2023-02-07T03:44:09.679Z,86.94
2023-02-07T03:46:38.325Z,86.65
2023-02-07T03:49:06.551Z,87.50
2023-02-07T03:51:35.910Z,87.71
2023-02-07T03:54:03.480Z,88.44
2023-02-07T03:56:30.867Z,89.17
2023-02-07T03:58:58.189Z,89.68
2023-02-07T04:01:25.552Z,89.74
2023-02-07T04:03:52.851Z,89.33
2023-02-07T04:06:20.607Z,89.14
2023-02-07T04:08:49.400Z,89.01
2023-02-07T04:11:16.645Z,88.11
2023-02-07T04:13:43.915Z,88.17
2023-02-07T04:16:11.384Z,87.87
2023-02-07T04:18:38.728Z,88.85
2023-02-07T04:21:07.915Z,89.25
2023-02-07T04:23:35.923Z,89.48
2023-02-07T04:26:04.969Z,89.63
2023-02-07T04:28:32.368Z,89.68
2023-02-07T04:30:59.663Z,89.66
2023-02-07T04:33:27.073Z,89.50
2023-02-07T04:35:55.727Z,89.71
2023-02-07T04:38:23.235Z,90.60
2023-02-07T04:40:50.480Z,91.22
2023-02-07T04:43:19.415Z,91.46
2023-02-07T04:45:48.640Z,91.32
2023-02-07T04:48:15.991Z,91.20
2023-02-07T04:50:43.799Z,91.20
2023-02-07T04:53:13.593Z,91.25
2023-02-07T04:55:41.066Z,91.08
2023-02-07T04:58:08.413Z,90.71
2023-02-07T05:00:37.253Z,90.46
2023-02-07T05:03:04.623Z,90.72
2023-02-07T05:05:32.051Z,90.38
2023-02-07T05:07:59.444Z,90.62
2023-02-07T05:10:26.700Z,90.90
2023-02-07T05:12:54.022Z,90.85
2023-02-07T05:15:21.394Z,90.54
2023-02-07T05:17:50.174Z,90.52
2023-02-07T05:20:17.658Z,90.14
2023-02-07T05:22:44.981Z,90.29
2023-02-07T05:25:12.433Z,89.94
2023-02-07T05:27:39.690Z,90.11
2023-02-07T05:30:08.134Z,90.48
2023-02-07T05:32:38.174Z,90.87
2023-02-07T05:35:07.423Z,91.39
2023-02-07T05:37:34.778Z,91.47
2023-02-07T05:40:02.385Z,91.10
2023-02-07T05:42:30.022Z,90.63
2023-02-07T05:44:57.427Z,90.78
2023-02-07T05:47:24.895Z,90.82
2023-02-07T05:49:52.482Z,91.08
2023-02-07T05:52:21.366Z,91.07
2023-02-07T05:54:50.510Z,90.76
2023-02-07T05:57:20.309Z,90.62
2023-02-07T05:59:49.151Z,90.62
2023-02-07T06:02:16.622Z,91.47
2023-02-07T06:04:44.430Z,91.19
2023-02-07T06:07:11.884Z,91.30
2023-02-07T06:09:41.850Z,91.58
2023-02-07T06:12:09.205Z,91.14
2023-02-07T06:14:36.760Z,91.56
2023-02-07T06:17:04.232Z,91.71
2023-02-07T06:19:31.713Z,91.51
2023-02-07T06:22:02.054Z,91.54
2023-02-07T06:24:29.582Z,91.50
2023-02-07T06:27:01.839Z,91.47
2023-02-07T06:29:31.065Z,90.68
2023-02-07T06:31:58.486Z,90.63
2023-02-07T06:34:26.204Z,90.34
2023-02-07T06:36:53.973Z,90.09
2023-02-07T06:39:25.477Z,89.96
2023-02-07T06:41:54.910Z,89.02
2023-02-07T06:44:27.332Z,88.48
2023-02-07T06:46:54.764Z,87.72
2023-02-07T06:49:22.201Z,87.33
2023-02-07T06:51:52.034Z,87.39
2023-02-07T06:54:19.600Z,86.97
2023-02-07T06:56:46.997Z,87.15
2023-02-07T06:59:14.630Z,86.79
2023-02-07T07:01:43.669Z,86.76
2023-02-07T07:04:13.447Z,86.81
2023-02-07T07:06:43.536Z,86.65
2023-02-07T07:09:10.872Z,86.35
2023-02-07T07:11:38.329Z,85.64
2023-02-07T07:14:05.758Z,85.46
2023-02-07T07:16:33.065Z,85.06
2023-02-07T07:19:02.070Z,84.24
2023-02-07T07:21:29.685Z,84.07
2023-02-07T07:23:57.129Z,83.43
2023-02-07T07:26:24.608Z,82.80
2023-02-07T07:28:52.153Z,83.02
2023-02-07T07:31:19.546Z,83.18
2023-02-07T07:33:46.959Z,82.71
2023-02-07T07:36:15.617Z,81.88
2023-02-07T07:38:46.001Z,82.03
2023-02-07T07:41:16.910Z,81.74
2023-02-07T07:43:44.417Z,81.29
2023-02-07T07:46:11.784Z,81.02
2023-02-07T07:48:41.096Z,81.01
2023-02-07T07:51:08.391Z,80.42
2023-02-07T07:53:39.034Z,80.36
2023-02-07T07:56:09.554Z,81.35
2023-02-07T07:58:46.230Z,81.07
2023-02-07T08:01:13.820Z,80.31
2023-02-07T08:03:41.376Z,79.00
2023-02-07T08:06:08.785Z,78.26
2023-02-07T08:08:37.771Z,79.20
2023-02-07T08:11:07.130Z,78.65
2023-02-07T08:13:37.848Z,77.61
2023-02-07T08:16:07.398Z,77.62
2023-02-07T08:18:37.386Z,78.26
2023-02-07T08:21:05.126Z,79.83
2023-02-07T08:23:33.210Z,79.32
2023-02-07T08:26:04.135Z,78.57
2023-02-07T08:28:32.666Z,77.88
2023-02-07T08:31:00.776Z,77.25
2023-02-07T08:33:30.337Z,76.53
2023-02-07T08:35:58.106Z,74.52
2023-02-07T08:38:25.541Z,74.94
2023-02-07T08:40:52.983Z,74.54
2023-02-07T08:43:21.822Z,74.64
2023-02-07T08:45:49.416Z,74.06
2023-02-07T08:48:16.830Z,74.55
2023-02-07T08:50:44.282Z,73.06
2023-02-07T08:53:12.157Z,74.38
2023-02-07T08:55:40.608Z,73.38
2023-02-07T08:58:12.554Z,73.76
2023-02-07T09:00:41.790Z,74.49
2023-02-07T09:03:09.614Z,73.74
2023-02-07T09:05:38.240Z,71.66
2023-02-07T09:08:05.581Z,71.47
2023-02-07T09:10:34.926Z,71.83
2023-02-07T09:13:02.428Z,70.16
2023-02-07T09:15:30.175Z,72.07
2023-02-07T09:18:08.119Z,70.51
2023-02-07T09:20:38.880Z,69.36
2023-02-07T09:23:06.782Z,70.82
2023-02-07T09:25:34.118Z,69.91
2023-02-07T09:28:01.570Z,69.87
2023-02-07T09:30:28.952Z,70.44
2023-02-07T09:32:57.434Z,69.30
2023-02-07T09:35:27.560Z,69.14
2023-02-07T09:37:55.422Z,69.00
2023-02-07T09:40:23.171Z,67.66
2023-02-07T09:42:56.967Z,65.93
2023-02-07T09:45:32.126Z,68.37
2023-02-07T09:48:04.318Z,66.63
2023-02-07T09:50:39.056Z,65.83
2023-02-07T09:53:16.907Z,67.24
2023-02-07T09:55:49.218Z,67.29
2023-02-07T09:58:21.084Z,67.11
2023-02-07T10:00:59.352Z,66.61
2023-02-07T10:03:27.079Z,67.13
2023-02-07T10:06:09.269Z,65.20
2023-02-07T10:08:47.129Z,66.37
2023-02-07T10:11:23.818Z,64.37
2023-02-07T10:14:07.291Z,65.23
2023-02-07T10:16:52.762Z,63.91
2023-02-07T10:19:29.672Z,64.50
2023-02-07T10:22:13.196Z,65.13
2023-02-07T10:24:55.597Z,65.19
2023-02-07T10:27:30.830Z,66.00
2023-02-07T10:30:11.720Z,65.16
2023-02-07T10:32:39.801Z,65.12
2023-02-07T10:35:16.383Z,63.37
2023-02-07T10:37:47.040Z,64.34
2023-02-07T10:40:22.912Z,62.96
2023-02-07T10:42:57.845Z,61.99
2023-02-07T10:45:25.303Z,63.76
2023-02-07T10:47:52.652Z,62.63
2023-02-07T10:50:29.621Z,62.20
2023-02-07T10:52:59.468Z,62.98
2023-02-07T10:55:51.108Z,61.33
2023-02-07T10:58:24.170Z,61.15
2023-02-07T11:00:53.015Z,59.33
2023-02-07T11:03:22.181Z,60.62
2023-02-07T11:05:58.390Z,62.55
2023-02-07T11:08:28.683Z,60.97
2023-02-07T11:10:58.494Z,60.67
2023-02-07T11:13:29.061Z,60.77
2023-02-07T11:16:00.652Z,61.53
2023-02-07T11:18:44.971Z,59.91
2023-02-07T11:21:28.299Z,61.35
2023-02-07T11:24:01.640Z,59.58
2023-02-07T11:26:30.825Z,58.03
2023-02-07T11:29:07.997Z,58.62
2023-02-07T11:31:39.043Z,55.67
2023-02-07T11:34:24.171Z,57.83
2023-02-07T11:36:51.636Z,56.95
2023-02-07T11:39:22.896Z,56.63
2023-02-07T11:41:56.700Z,54.80
2023-02-07T11:44:31.820Z,55.64
2023-02-07T11:47:05.350Z,54.32
2023-02-07T11:49:47.568Z,55.19
2023-02-07T11:52:15.788Z,55.71
2023-02-07T11:54:53.331Z,54.87
2023-02-07T11:57:22.214Z,54.73
2023-02-07T12:00:06.978Z,53.55
2023-02-07T12:02:41.152Z,53.65
2023-02-07T12:05:16.735Z,55.28
2023-02-07T12:07:48.322Z,56.21
2023-02-07T12:10:27.283Z,55.09
2023-02-07T12:13:00.750Z,54.40
2023-02-07T12:15:33.606Z,54.51
2023-02-07T12:18:10.796Z,55.14
2023-02-07T12:20:41.970Z,52.98
2023-02-07T12:23:40.793Z,54.79
2023-02-07T12:26:19.860Z,53.33
2023-02-07T12:29:13.188Z,54.12
2023-02-07T12:31:54.754Z,54.02
2023-02-07T12:34:30.608Z,53.21
2023-02-07T12:37:04.492Z,51.69
2023-02-07T12:39:39.792Z,53.38
2023-02-07T12:42:31.933Z,52.77
2023-02-07T12:45:01.634Z,54.15
2023-02-07T12:47:45.295Z,51.32
2023-02-07T12:50:32.753Z,48.66
2023-02-07T12:53:16.821Z,47.71
2023-02-07T12:55:56.391Z,49.85
2023-02-07T12:58:39.935Z,51.22
2023-02-07T13:01:15.504Z,51.60
2023-02-07T13:04:06.093Z,52.03
2023-02-07T13:06:42.090Z,51.28
2023-02-07T13:09:21.706Z,50.85
2023-02-07T13:12:00.227Z,51.61
2023-02-07T13:14:41.977Z,50.07
2023-02-07T13:17:29.193Z,50.33
2023-02-07T13:20:06.221Z,50.89
2023-02-07T13:22:40.086Z,51.80
2023-02-07T13:25:16.249Z,51.13
2023-02-07T13:27:44.994Z,51.21
2023-02-07T13:30:20.792Z,49.31
2023-02-07T13:32:51.032Z,50.19
2023-02-07T13:35:23.470Z,50.91
2023-02-07T13:37:59.252Z,51.15
2023-02-07T13:40:33.837Z,50.44
2023-02-07T13:43:07.564Z,51.22
2023-02-07T13:45:45.705Z,50.96
2023-02-07T13:48:23.274Z,51.60
2023-02-07T13:50:59.245Z,50.89
2023-02-07T13:53:46.370Z,51.49
2023-02-07T13:56:16.230Z,51.88
2023-02-07T13:58:54.833Z,51.39
2023-02-07T14:01:26.153Z,51.57
2023-02-07T14:04:03.612Z,51.09
2023-02-07T14:06:34.074Z,49.83
2023-02-07T14:09:06.232Z,54.60
2023-02-07T14:11:39.104Z,57.78
2023-02-07T14:14:14.584Z,55.53
2023-02-07T14:17:05.846Z,57.34
2023-02-07T14:19:54.313Z,59.04
2023-02-07T14:22:27.310Z,59.95
2023-02-07T14:25:20.275Z,59.11
2023-02-07T14:28:18.558Z,58.00
2023-02-07T14:31:11.300Z,58.57
2023-02-07T14:33:40.260Z,58.55
2023-02-07T14:36:21.245Z,59.60
2023-02-07T14:39:22.549Z,61.09
2023-02-07T14:41:52.193Z,62.26
2023-02-07T14:44:25.422Z,62.58
2023-02-07T14:46:58.061Z,63.67
2023-02-07T14:49:32.889Z,63.50
2023-02-07T14:52:02.427Z,64.73
2023-02-07T14:54:41.313Z,66.97
2023-02-07T14:57:19.913Z,63.24
2023-02-07T14:59:54.200Z,64.40
2023-02-07T15:02:43.424Z,65.03
2023-02-07T15:05:24.163Z,64.54
2023-02-07T15:08:16.176Z,66.55
2023-02-07T15:10:51.814Z,64.71
2023-02-07T15:13:25.302Z,69.01
2023-02-07T15:15:55.552Z,68.34
2023-02-07T15:18:27.115Z,69.41
2023-02-07T15:20:58.895Z,69.85
2023-02-07T15:23:28.143Z,68.44
2023-02-07T15:25:55.776Z,67.88
2023-02-07T15:28:28.192Z,68.52
2023-02-07T15:30:58.623Z,70.10
2023-02-07T15:33:29.147Z,70.91
2023-02-07T15:35:57.875Z,68.89
2023-02-07T15:41:41.376Z,68.00
2023-02-07T15:44:31.011Z,68.54
2023-02-07T15:47:32.298Z,68.19
2023-02-07T15:50:01.350Z,69.49
2023-02-07T15:52:33.871Z,68.96
2023-02-07T15:55:05.025Z,69.99
2023-02-07T15:57:35.963Z,71.40
2023-02-07T16:00:07.412Z,71.97
2023-02-07T16:02:57.948Z,72.44
2023-02-07T16:05:29.246Z,73.05
2023-02-07T16:07:59.596Z,72.39
2023-02-07T16:10:38.730Z,71.91
2023-02-07T16:13:20.151Z,72.29
2023-02-07T16:15:55.773Z,73.15
2023-02-07T16:18:37.310Z,73.96
2023-02-07T16:21:06.756Z,74.55
2023-02-07T16:23:36.289Z,74.05
2023-02-07T16:26:04.273Z,74.31
2023-02-07T16:28:34.636Z,74.45
2023-02-07T16:31:02.433Z,74.18
2023-02-07T16:33:29.817Z,75.37
2023-02-07T16:36:00.186Z,75.22
2023-02-07T16:38:27.647Z,75.67
2023-02-07T16:40:59.767Z,76.12
2023-02-07T16:43:35.517Z,76.30
2023-02-07T16:46:10.839Z,75.66
2023-02-07T16:48:39.471Z,74.85
2023-02-07T16:51:09.707Z,73.58
2023-02-07T16:53:37.007Z,75.01
2023-02-07T16:56:06.205Z,76.49
2023-02-07T16:58:34.228Z,76.83
2023-02-07T17:01:04.272Z,75.42
2023-02-07T17:03:31.778Z,74.93
2023-02-07T17:05:59.159Z,76.21
2023-02-07T17:08:29.027Z,77.29
2023-02-07T17:11:22.902Z,77.59
2023-02-07T17:14:05.922Z,78.93
2023-02-07T17:16:33.375Z,79.05
2023-02-07T17:19:00.825Z,79.71
2023-02-07T17:21:28.200Z,77.98
2023-02-07T17:23:57.409Z,77.09
2023-02-07T17:26:27.405Z,78.31
2023-02-07T17:28:56.184Z,78.30
2023-02-07T17:31:24.708Z,78.51
2023-02-07T17:33:53.524Z,78.54
2023-02-07T17:36:20.869Z,78.67
2023-02-07T17:38:51.338Z,78.16
2023-02-07T17:41:18.760Z,78.28
2023-02-07T17:43:46.232Z,78.88
2023-02-07T17:46:18.289Z,79.36
2023-02-07T17:48:47.778Z,79.74
2023-02-07T17:51:18.486Z,80.05
2023-02-07T17:53:46.434Z,80.13
2023-02-07T17:56:20.495Z,78.99
2023-02-07T17:58:47.934Z,79.34
2023-02-07T18:01:16.779Z,80.25
2023-02-07T18:03:44.184Z,80.08
2023-02-07T18:06:15.235Z,79.79
2023-02-07T18:08:43.652Z,80.99
2023-02-07T18:11:11.636Z,80.47
2023-02-07T18:13:39.133Z,79.80
2023-02-07T18:16:07.390Z,80.11
2023-02-07T18:18:36.124Z,79.96
2023-02-07T18:21:05.628Z,79.72
2023-02-07T18:23:35.034Z,79.63
2023-02-07T18:26:03.329Z,79.40
2023-02-07T18:28:31.029Z,79.16
2023-02-07T18:30:58.418Z,79.18
2023-02-07T18:33:25.868Z,79.16
2023-02-07T18:36:00.008Z,80.59
2023-02-07T18:38:28.165Z,80.31
2023-02-07T18:40:55.617Z,80.40
2023-02-07T18:43:23.171Z,81.66
2023-02-07T18:45:50.715Z,81.81
2023-02-07T18:48:18.188Z,81.75
2023-02-07T18:50:48.938Z,81.73
2023-02-07T18:53:21.381Z,80.97
2023-02-07T18:55:48.793Z,80.57
2023-02-07T18:58:16.137Z,80.64
2023-02-07T19:00:43.698Z,80.08
2023-02-07T19:03:27.057Z,80.64
2023-02-07T19:05:58.510Z,81.80
2023-02-07T19:08:28.024Z,81.90
2023-02-07T19:10:55.969Z,82.01
2023-02-07T19:13:25.898Z,82.50
2023-02-07T19:15:53.414Z,82.48
2023-02-07T19:18:28.034Z,82.13
2023-02-07T19:20:55.576Z,81.89
2023-02-07T19:23:29.344Z,82.78
2023-02-07T19:25:59.877Z,82.62
2023-02-07T19:28:28.144Z,82.68
2023-02-07T19:30:58.096Z,83.01
2023-02-07T19:33:26.141Z,83.29
2023-02-07T19:35:53.900Z,83.16
2023-02-07T19:38:23.684Z,83.16
2023-02-07T19:40:57.609Z,84.00
2023-02-07T19:43:31.070Z,84.37
2023-02-07T19:45:58.594Z,84.33
2023-02-07T19:48:32.480Z,84.78
2023-02-07T19:51:00.781Z,85.33
2023-02-07T19:53:29.293Z,85.82
2023-02-07T19:56:01.069Z,85.27
2023-02-07T19:58:30.241Z,85.63
2023-02-07T20:00:58.725Z,85.43
2023-02-07T20:03:26.752Z,85.86
2023-02-07T20:05:55.591Z,86.30
2023-02-07T20:08:23.007Z,86.40
2023-02-07T20:10:50.515Z,86.95
2023-02-07T20:13:19.584Z,87.07
2023-02-07T20:15:49.699Z,87.44
2023-02-07T20:18:17.026Z,87.30
2023-02-07T20:20:47.827Z,87.30
2023-02-07T20:23:16.167Z,87.44
2023-02-07T20:25:43.728Z,87.92
2023-02-07T20:28:11.225Z,87.70
2023-02-07T20:30:44.224Z,87.95
2023-02-07T20:33:11.749Z,87.85
2023-02-07T20:35:40.763Z,87.85
2023-02-07T20:38:08.226Z,87.92
2023-02-07T20:40:35.456Z,88.32
2023-02-07T20:43:05.327Z,88.92
2023-02-07T20:45:33.118Z,88.75
2023-02-07T20:48:01.888Z,88.97
2023-02-07T20:50:29.232Z,88.59
2023-02-07T20:52:56.673Z,89.25
2023-02-07T20:55:24.037Z,88.66
2023-02-07T20:57:51.546Z,88.23
2023-02-07T21:00:19.340Z,88.70
2023-02-07T21:02:51.719Z,89.26
2023-02-07T21:05:20.498Z,89.11
2023-02-07T21:07:47.855Z,89.14
2023-02-07T21:10:15.278Z,89.26
2023-02-07T21:12:43.896Z,89.82
2023-02-07T21:15:13.552Z,89.88
2023-02-07T21:17:43.003Z,89.99
2023-02-07T21:20:14.036Z,90.66
2023-02-07T21:22:46.726Z,90.92
2023-02-07T21:25:15.344Z,90.88
2023-02-07T21:27:43.693Z,91.35
2023-02-07T21:30:12.138Z,91.37
2023-02-07T21:32:44.004Z,91.32
2023-02-07T21:35:11.458Z,91.36
2023-02-07T21:37:39.006Z,91.45
2023-02-07T21:40:09.798Z,91.13
2023-02-07T21:42:37.230Z,91.42
2023-02-07T21:45:05.199Z,92.36
2023-02-07T21:47:32.464Z,92.52
2023-02-07T21:49:59.814Z,93.26
2023-02-07T21:52:28.964Z,92.92
2023-02-07T21:54:59.078Z,93.15
2023-02-07T21:57:28.342Z,93.07
2023-02-07T21:59:55.643Z,93.78
2023-02-07T22:02:23.554Z,93.94
2023-02-07T22:04:53.305Z,94.71
2023-02-07T22:07:20.880Z,94.35
2023-02-07T22:09:50.346Z,93.74
2023-02-07T22:12:17.649Z,93.80
2023-02-07T22:14:46.608Z,93.83
2023-02-07T22:17:14.178Z,94.12
2023-02-07T22:19:41.675Z,94.68
2023-02-07T22:22:11.270Z,94.51
2023-02-07T22:24:39.303Z,94.82
2023-02-07T22:27:06.954Z,94.79
2023-02-07T22:29:35.197Z,94.86
2023-02-07T22:32:04.388Z,94.81
2023-02-07T22:34:31.978Z,94.98
2023-02-07T22:37:02.797Z,94.53
2023-02-07T22:39:30.974Z,94.64
2023-02-07T22:41:58.341Z,94.76
2023-02-07T22:44:28.275Z,94.93
2023-02-07T22:46:58.299Z,95.30
2023-02-07T22:49:28.888Z,95.30
2023-02-07T22:51:56.453Z,95.97
2023-02-07T22:54:24.026Z,95.91
2023-02-07T22:56:51.426Z,96.20
2023-02-07T22:59:19.107Z,95.89
2023-02-07T23:01:46.668Z,95.91
2023-02-07T23:04:15.867Z,96.02
2023-02-07T23:06:44.977Z,96.04
2023-02-07T23:09:14.117Z,96.95
2023-02-07T23:11:41.806Z,97.51
2023-02-07T23:14:13.472Z,97.50
2023-02-07T23:16:40.878Z,97.94
2023-02-07T23:19:12.325Z,97.38
2023-02-07T23:21:41.066Z,97.70
2023-02-07T23:24:10.599Z,97.18
2023-02-07T23:26:39.908Z,97.79
2023-02-07T23:29:07.406Z,97.85
2023-02-07T23:31:34.873Z,98.15
2023-02-07T23:34:02.500Z,98.46
2023-02-07T23:36:30.931Z,98.52
2023-02-07T23:39:00.280Z,98.82
2023-02-07T23:41:29.880Z,98.66
2023-02-07T23:43:59.962Z,98.30
2023-02-07T23:46:28.099Z,97.91
2023-02-07T23:48:55.660Z,98.09
2023-02-07T23:51:23.160Z,98.24
2023-02-07T23:53:51.008Z,98.64
2023-02-07T23:56:35.190Z,98.78
2023-02-07T23:59:02.780Z,99.02
